createdAt,value
2023-01-02T00:01:21.908Z,20.15
2023-01-02T00:03:48.305Z,20.11
2023-01-02T00:06:14.666Z,20.05
2023-01-02T00:08:40.908Z,20.02
2023-01-02T00:11:07.315Z,19.98
2023-01-02T00:13:33.583Z,19.94
2023-01-02T00:16:00.003Z,19.90
2023-01-02T00:18:26.341Z,19.87
2023-01-02T00:20:52.670Z,19.82
2023-01-02T00:23:18.949Z,19.79
2023-01-02T00:25:45.301Z,19.75
2023-01-02T00:28:11.589Z,19.73
2023-01-02T00:30:38.595Z,19.68
2023-01-02T00:33:05.113Z,19.65
2023-01-02T00:35:31.795Z,19.60
2023-01-02T00:37:58.139Z,19.58
2023-01-02T00:40:24.716Z,19.53
2023-01-02T00:42:50.999Z,19.48
2023-01-02T00:45:17.342Z,19.44
2023-01-02T00:47:43.703Z,19.38
2023-01-02T00:50:09.990Z,19.35
2023-01-02T00:52:36.252Z,19.31
2023-01-02T00:55:02.900Z,19.28
2023-01-02T00:57:29.232Z,19.24
2023-01-02T00:59:55.570Z,19.21
2023-01-02T01:02:21.959Z,19.17
2023-01-02T01:04:48.363Z,19.14
2023-01-02T01:07:14.657Z,19.12
2023-01-02T01:09:40.931Z,19.09
2023-01-02T01:12:07.322Z,19.06
2023-01-02T01:14:33.566Z,19.03
2023-01-02T01:16:59.871Z,19.01
2023-01-02T01:19:26.197Z,18.98
2023-01-02T01:21:52.600Z,18.95
2023-01-02T01:24:19.349Z,18.94
2023-01-02T01:26:45.638Z,18.91
2023-01-02T01:29:11.949Z,18.87
2023-01-02T01:31:41.246Z,18.86
2023-01-02T01:34:07.545Z,18.83
2023-01-02T01:36:34.271Z,18.81
2023-01-02T01:39:00.756Z,18.78
2023-01-02T01:41:27.036Z,18.77
2023-01-02T01:43:53.340Z,18.74
2023-01-02T01:46:19.758Z,18.72
2023-01-02T01:48:46.032Z,18.70
2023-01-02T01:51:12.307Z,18.67
2023-01-02T01:53:39.334Z,18.66
2023-01-02T01:56:06.724Z,18.64
2023-01-02T01:58:35.952Z,18.61
2023-01-02T02:01:02.317Z,18.59
2023-01-02T02:03:28.692Z,18.58
2023-01-02T02:05:55.342Z,18.57
2023-01-02T02:08:21.598Z,18.53
2023-01-02T02:10:47.884Z,18.52
2023-01-02T02:13:14.226Z,18.49
2023-01-02T02:15:40.603Z,18.48
2023-01-02T02:18:07.656Z,18.47
2023-01-02T02:20:33.906Z,18.43
2023-01-02T02:23:00.399Z,18.41
2023-01-02T02:25:26.781Z,18.41
2023-01-02T02:27:53.144Z,18.39
2023-01-02T02:30:19.455Z,18.38
2023-01-02T02:32:45.853Z,18.36
2023-01-02T02:35:12.738Z,18.35
2023-01-02T02:37:39.519Z,18.33
2023-01-02T02:40:05.830Z,18.31
2023-01-02T02:42:32.173Z,18.29
2023-01-02T02:44:58.476Z,18.27
2023-01-02T02:47:24.717Z,18.27
2023-01-02T02:49:50.995Z,18.26
2023-01-02T02:52:17.266Z,18.22
2023-01-02T02:54:43.622Z,18.21
2023-01-02T02:57:09.960Z,18.19
2023-01-02T02:59:36.807Z,18.20
2023-01-02T03:02:03.185Z,18.17
2023-01-02T03:04:29.633Z,18.16
2023-01-02T03:06:55.940Z,18.14
2023-01-02T03:09:23.067Z,18.12
2023-01-02T03:11:49.480Z,18.11
2023-01-02T03:14:15.747Z,18.09
2023-01-02T03:16:42.254Z,18.08
2023-01-02T03:19:08.727Z,18.06
2023-01-02T03:21:34.967Z,18.05
2023-01-02T03:24:01.512Z,18.03
2023-01-02T03:26:27.807Z,18.02
2023-01-02T03:28:54.075Z,18.00
2023-01-02T03:31:20.316Z,17.98
2023-01-02T03:33:46.590Z,17.97
2023-01-02T03:36:12.902Z,17.95
2023-01-02T03:38:39.218Z,17.93
2023-01-02T03:41:05.475Z,17.93
2023-01-02T03:43:31.805Z,17.92
2023-01-02T03:45:58.105Z,17.89
2023-01-02T03:48:24.427Z,17.89
2023-01-02T03:50:50.683Z,17.86
2023-01-02T03:53:16.954Z,17.86
2023-01-02T03:55:43.201Z,17.84
2023-01-02T03:58:09.859Z,17.82
2023-01-02T04:00:36.257Z,17.81
2023-01-02T04:03:02.566Z,17.81
2023-01-02T04:05:29.114Z,17.80
2023-01-02T04:07:55.412Z,17.79
2023-01-02T04:10:22.079Z,17.78
2023-01-02T04:12:48.268Z,17.78
2023-01-02T04:15:14.632Z,17.77
2023-01-02T04:17:41.161Z,17.77
2023-01-02T04:20:07.769Z,17.76
2023-01-02T04:22:34.063Z,17.74
2023-01-02T04:25:00.563Z,17.74
2023-01-02T04:27:29.938Z,17.72
2023-01-02T04:29:56.461Z,17.72
2023-01-02T04:32:22.689Z,17.70
2023-01-02T04:34:50.878Z,17.68
2023-01-02T04:37:18.741Z,17.68
2023-01-02T04:39:45.963Z,17.67
2023-01-02T04:42:12.213Z,17.66
2023-01-02T04:44:38.533Z,17.65
2023-01-02T04:47:04.792Z,17.64
2023-01-02T04:49:31.124Z,17.62
2023-01-02T04:51:57.362Z,17.63
2023-01-02T04:54:23.583Z,17.61
2023-01-02T04:56:49.879Z,17.61
2023-01-02T04:59:16.430Z,17.58
2023-01-02T05:01:43.363Z,17.58
2023-01-02T05:04:09.688Z,17.58
2023-01-02T05:06:36.366Z,17.56
2023-01-02T05:09:02.611Z,17.55
2023-01-02T05:11:28.833Z,17.55
2023-01-02T05:13:55.222Z,17.53
2023-01-02T05:16:21.503Z,17.53
2023-01-02T05:18:48.608Z,17.53
2023-01-02T05:21:15.771Z,17.52
2023-01-02T05:23:42.038Z,17.51
2023-01-02T05:26:08.439Z,17.51
2023-01-02T05:28:38.545Z,17.50
2023-01-02T05:31:06.026Z,17.49
2023-01-02T05:33:32.447Z,17.48
2023-01-02T05:35:59.445Z,17.48
2023-01-02T05:38:26.151Z,17.47
2023-01-02T05:40:54.575Z,17.46
2023-01-02T05:43:21.139Z,17.44
2023-01-02T05:45:47.430Z,17.44
2023-01-02T05:48:15.938Z,17.43
2023-01-02T05:50:42.439Z,17.42
2023-01-02T05:53:09.564Z,17.41
2023-01-02T05:55:35.804Z,17.41
2023-01-02T05:58:02.105Z,17.40
2023-01-02T06:00:28.453Z,17.39
2023-01-02T06:02:57.071Z,17.37
2023-01-02T06:05:24.767Z,17.37
2023-01-02T06:07:51.887Z,17.36
2023-01-02T06:10:18.187Z,17.35
2023-01-02T06:12:44.547Z,17.34
2023-01-02T06:15:10.880Z,17.34
2023-01-02T06:17:37.142Z,17.33
2023-01-02T06:20:03.441Z,17.32
2023-01-02T06:22:30.506Z,17.31
2023-01-02T06:24:57.977Z,17.30
2023-01-02T06:27:24.283Z,17.30
2023-01-02T06:29:50.528Z,17.29
2023-01-02T06:32:16.884Z,17.27
2023-01-02T06:34:43.978Z,17.27
2023-01-02T06:37:10.883Z,17.26
2023-01-02T06:39:37.291Z,17.25
2023-01-02T06:42:04.456Z,17.24
2023-01-02T06:44:31.030Z,17.22
2023-01-02T06:46:57.437Z,17.22
2023-01-02T06:49:23.737Z,17.21
2023-01-02T06:51:50.351Z,17.21
2023-01-02T06:54:17.346Z,17.20
2023-01-02T06:56:43.907Z,17.18
2023-01-02T06:59:10.879Z,17.16
2023-01-02T07:01:38.189Z,17.16
2023-01-02T07:04:04.556Z,17.16
2023-01-02T07:06:32.922Z,17.15
2023-01-02T07:08:59.208Z,17.15
2023-01-02T07:11:27.764Z,17.12
2023-01-02T07:13:54.063Z,17.13
2023-01-02T07:16:20.902Z,17.12
2023-01-02T07:18:48.035Z,17.11
2023-01-02T07:21:14.293Z,17.16
2023-01-02T07:23:41.181Z,17.31
2023-01-02T07:26:11.319Z,17.49
2023-01-02T07:28:38.898Z,17.65
2023-01-02T07:31:05.294Z,17.78
2023-01-02T07:33:31.605Z,17.90
2023-01-02T07:35:58.245Z,17.99
2023-01-02T07:38:25.170Z,18.07
2023-01-02T07:40:51.450Z,18.15
2023-01-02T07:43:17.875Z,18.21
2023-01-02T07:45:49.688Z,18.27
2023-01-02T07:48:16.540Z,18.32
2023-01-02T07:50:43.970Z,18.37
2023-01-02T07:53:10.826Z,18.41
2023-01-02T07:55:37.948Z,18.45
2023-01-02T07:58:04.394Z,18.50
2023-01-02T08:00:31.285Z,18.54
2023-01-02T08:02:57.713Z,18.57
2023-01-02T08:05:24.410Z,18.60
2023-01-02T08:07:50.672Z,18.64
2023-01-02T08:10:16.993Z,18.67
2023-01-02T08:12:43.747Z,18.71
2023-01-02T08:15:10.774Z,18.73
2023-01-02T08:17:37.126Z,18.77
2023-01-02T08:20:07.953Z,18.79
2023-01-02T08:22:35.233Z,18.80
2023-01-02T08:25:01.606Z,18.82
2023-01-02T08:27:28.138Z,18.83
2023-01-02T08:29:54.393Z,18.84
2023-01-02T08:32:21.008Z,18.85
2023-01-02T08:34:47.307Z,18.85
2023-01-02T08:37:13.638Z,18.85
2023-01-02T08:39:40.837Z,18.86
2023-01-02T08:42:08.706Z,18.86
2023-01-02T08:44:34.952Z,18.89
2023-01-02T08:47:01.264Z,18.90
2023-01-02T08:49:27.732Z,18.91
2023-01-02T08:51:54.485Z,18.92
2023-01-02T08:54:21.298Z,18.93
2023-01-02T08:56:47.562Z,18.94
2023-01-02T08:59:13.884Z,18.93
2023-01-02T09:01:40.611Z,18.95
2023-01-02T09:04:11.887Z,18.97
2023-01-02T09:06:38.581Z,19.00
2023-01-02T09:09:11.014Z,19.00
2023-01-02T09:11:38.500Z,19.01
2023-01-02T09:14:05.548Z,19.00
2023-01-02T09:16:32.094Z,19.02
2023-01-02T09:18:58.942Z,19.01
2023-01-02T09:21:25.202Z,19.03
2023-01-02T09:23:51.462Z,19.04
2023-01-02T09:26:17.829Z,19.05
2023-01-02T09:28:44.097Z,19.06
2023-01-02T09:31:12.502Z,19.08
2023-01-02T09:33:39.088Z,19.10
2023-01-02T09:36:05.396Z,19.11
2023-01-02T09:38:31.797Z,19.11
2023-01-02T09:40:58.131Z,19.11
2023-01-02T09:43:24.379Z,19.12
2023-01-02T09:45:51.460Z,19.13
2023-01-02T09:48:17.723Z,19.15
2023-01-02T09:50:44.335Z,19.18
2023-01-02T09:53:11.067Z,19.21
2023-01-02T09:55:37.404Z,19.24
2023-01-02T09:58:04.392Z,19.28
2023-01-02T10:00:30.738Z,19.30
2023-01-02T10:02:59.371Z,19.32
2023-01-02T10:05:27.783Z,19.34
2023-01-02T10:07:54.144Z,19.36
2023-01-02T10:10:20.409Z,19.36
2023-01-02T10:12:46.636Z,19.36
2023-01-02T10:15:12.963Z,19.35
2023-01-02T10:17:39.467Z,19.37
2023-01-02T10:20:05.852Z,19.37
2023-01-02T10:22:32.101Z,19.38
2023-01-02T10:24:58.584Z,19.38
2023-01-02T10:27:25.584Z,19.39
2023-01-02T10:29:51.903Z,19.41
2023-01-02T10:32:18.988Z,19.40
2023-01-02T10:34:45.247Z,19.42
2023-01-02T10:37:11.598Z,19.41
2023-01-02T10:39:37.824Z,19.42
2023-01-02T10:42:04.148Z,19.43
2023-01-02T10:44:30.523Z,19.43
2023-01-02T10:47:05.216Z,19.44
2023-01-02T10:49:34.099Z,19.45
2023-01-02T10:52:00.411Z,19.47
2023-01-02T10:54:27.097Z,19.48
2023-01-02T10:56:53.382Z,19.48
2023-01-02T10:59:20.729Z,19.50
2023-01-02T11:01:47.114Z,19.52
2023-01-02T11:04:13.577Z,19.51
2023-01-02T11:06:40.137Z,19.52
2023-01-02T11:09:07.023Z,19.52
2023-01-02T11:11:34.017Z,19.52
2023-01-02T11:14:00.299Z,19.53
2023-01-02T11:16:26.694Z,19.54
2023-01-02T11:18:53.021Z,19.54
2023-01-02T11:21:19.309Z,19.54
2023-01-02T11:23:45.549Z,19.55
2023-01-02T11:26:11.920Z,19.54
2023-01-02T11:28:38.218Z,19.54
2023-01-02T11:31:05.292Z,19.53
2023-01-02T11:33:31.968Z,19.53
2023-01-02T11:35:58.276Z,19.54
2023-01-02T11:38:30.054Z,19.54
2023-01-02T11:40:57.208Z,19.54
2023-01-02T11:43:24.498Z,19.56
2023-01-02T11:45:50.896Z,19.56
2023-01-02T11:48:17.266Z,19.57
2023-01-02T11:50:43.504Z,19.57
2023-01-02T11:53:09.765Z,19.58
2023-01-02T11:55:36.045Z,19.58
2023-01-02T11:58:02.358Z,19.59
2023-01-02T12:00:28.650Z,19.59
2023-01-02T12:02:56.200Z,19.58
2023-01-02T12:05:22.572Z,19.57
2023-01-02T12:07:48.835Z,19.57
2023-01-02T12:10:15.118Z,19.57
2023-01-02T12:12:41.484Z,19.56
2023-01-02T12:15:08.735Z,19.55
2023-01-02T12:17:35.150Z,19.56
2023-01-02T12:20:05.477Z,19.57
2023-01-02T12:22:32.318Z,19.57
2023-01-02T12:24:59.036Z,19.59
2023-01-02T12:27:25.410Z,19.61
2023-01-02T12:29:51.735Z,19.61
2023-01-02T12:32:18.021Z,19.61
2023-01-02T12:34:45.142Z,19.61
2023-01-02T12:37:11.493Z,19.62
2023-01-02T12:39:37.749Z,19.62
2023-01-02T12:42:04.596Z,19.62
2023-01-02T12:44:33.775Z,19.63
2023-01-02T12:47:00.426Z,19.64
2023-01-02T12:49:26.707Z,19.65
2023-01-02T12:51:56.104Z,19.65
2023-01-02T12:54:22.415Z,19.67
2023-01-02T12:56:49.000Z,19.67
2023-01-02T12:59:15.233Z,19.68
2023-01-02T13:01:42.484Z,19.67
2023-01-02T13:04:08.774Z,19.68
2023-01-02T13:06:45.085Z,19.69
2023-01-02T13:09:16.905Z,19.69
2023-01-02T13:11:48.223Z,19.70
2023-01-02T13:14:15.133Z,19.69
2023-01-02T13:16:41.437Z,19.69
2023-01-02T13:19:07.788Z,19.70
2023-01-02T13:21:34.524Z,19.70
2023-01-02T13:24:00.897Z,19.69
2023-01-02T13:26:27.160Z,19.67
2023-01-02T13:28:53.514Z,19.67
2023-01-02T13:31:45.502Z,19.65
2023-01-02T13:34:06.580Z,19.63
2023-01-02T13:36:32.859Z,19.62
2023-01-02T13:39:00.020Z,19.62
2023-01-02T13:41:26.557Z,19.62
2023-01-02T13:43:53.389Z,19.61
2023-01-02T13:46:53.492Z,19.61
2023-01-02T13:49:06.505Z,19.60
2023-01-02T13:51:33.031Z,19.60
2023-01-02T13:53:59.431Z,19.58
2023-01-02T13:56:25.707Z,19.57
2023-01-02T13:58:51.961Z,19.55
2023-01-02T14:01:18.329Z,19.55
2023-01-02T14:03:45.140Z,19.53
2023-01-02T14:06:11.461Z,19.52
2023-01-02T14:08:40.762Z,19.52
2023-01-02T14:11:07.803Z,19.50
2023-01-02T14:13:34.569Z,19.49
2023-01-02T14:16:00.809Z,19.48
2023-01-02T14:18:30.328Z,19.47
2023-01-02T14:20:57.041Z,19.46
2023-01-02T14:23:23.327Z,19.45
2023-01-02T14:25:50.905Z,19.44
2023-01-02T14:28:17.306Z,19.43
2023-01-02T14:30:43.853Z,19.42
2023-01-02T14:33:10.120Z,19.41
2023-01-02T14:35:36.574Z,19.41
2023-01-02T14:38:02.825Z,19.39
2023-01-02T14:40:29.749Z,19.39
2023-01-02T14:42:56.447Z,19.38
2023-01-02T14:45:23.637Z,19.37
2023-01-02T14:47:49.901Z,19.37
2023-01-02T14:50:17.531Z,19.37
2023-01-02T14:52:43.835Z,19.38
2023-01-02T14:55:10.043Z,19.40
2023-01-02T14:57:37.418Z,19.40
2023-01-02T15:00:03.726Z,19.41
2023-01-02T15:02:30.877Z,19.44
2023-01-02T15:04:57.249Z,19.45
2023-01-02T15:07:23.478Z,19.46
2023-01-02T15:09:50.562Z,19.46
2023-01-02T15:12:16.801Z,19.46
2023-01-02T15:14:43.128Z,19.47
2023-01-02T15:17:09.408Z,19.47
2023-01-02T15:19:35.679Z,19.47
2023-01-02T15:22:01.936Z,19.46
2023-01-02T15:24:28.256Z,19.45
2023-01-02T15:26:54.539Z,19.44
2023-01-02T15:29:21.379Z,19.44
2023-01-02T15:31:47.648Z,19.43
2023-01-02T15:34:13.869Z,19.42
2023-01-02T15:36:40.150Z,19.42
2023-01-02T15:39:06.568Z,19.41
2023-01-02T15:41:34.004Z,19.40
2023-01-02T15:44:00.263Z,19.40
2023-01-02T15:46:26.600Z,19.38
2023-01-02T15:48:52.877Z,19.36
2023-01-02T15:51:19.153Z,19.37
2023-01-02T15:53:46.054Z,19.37
2023-01-02T15:56:12.307Z,19.36
2023-01-02T15:58:38.593Z,19.36
2023-01-02T16:01:05.567Z,19.34
2023-01-02T16:04:00.299Z,19.33
2023-01-02T16:06:18.178Z,19.34
2023-01-02T16:08:45.425Z,19.31
2023-01-02T16:11:12.644Z,19.31
2023-01-02T16:13:38.922Z,19.30
2023-01-02T16:16:15.808Z,19.30
2023-01-02T16:18:43.331Z,19.29
2023-01-02T16:21:09.650Z,19.27
2023-01-02T16:23:36.537Z,19.26
2023-01-02T16:26:02.819Z,19.24
2023-01-02T16:28:35.965Z,19.24
2023-01-02T16:31:03.104Z,19.23
2023-01-02T16:33:30.064Z,19.21
2023-01-02T16:36:00.528Z,19.20
2023-01-02T16:38:27.348Z,19.19
2023-01-02T16:41:01.458Z,19.18
2023-01-02T16:43:28.850Z,19.17
2023-01-02T16:45:55.175Z,19.15
2023-01-02T16:48:21.506Z,19.15
2023-01-02T16:50:47.889Z,19.14
2023-01-02T16:53:14.137Z,19.14
2023-01-02T16:55:40.441Z,19.14
2023-01-02T16:58:07.605Z,19.15
2023-01-02T17:00:39.765Z,19.15
2023-01-02T17:03:09.659Z,19.16
2023-01-02T17:05:36.009Z,19.17
2023-01-02T17:08:02.348Z,19.20
2023-01-02T17:10:28.623Z,19.21
2023-01-02T17:12:55.121Z,19.23
2023-01-02T17:15:21.402Z,19.26
2023-01-02T17:17:51.617Z,19.26
2023-01-02T17:20:18.603Z,19.28
2023-01-02T17:22:44.870Z,19.30
2023-01-02T17:25:11.399Z,19.31
2023-01-02T17:27:37.660Z,19.32
2023-01-02T17:30:04.098Z,19.34
2023-01-02T17:32:30.438Z,19.34
2023-01-02T17:35:03.728Z,19.35
2023-01-02T17:37:30.113Z,19.36
2023-01-02T17:39:56.349Z,19.36
2023-01-02T17:42:23.547Z,19.37
2023-01-02T17:44:49.790Z,19.37
2023-01-02T17:47:56.934Z,19.38
2023-01-02T17:50:02.337Z,19.38
2023-01-02T17:52:28.735Z,19.38
2023-01-02T17:54:57.025Z,19.38
2023-01-02T17:57:23.523Z,19.38
2023-01-02T17:59:49.772Z,19.38
2023-01-02T18:02:16.223Z,19.38
2023-01-02T18:04:42.979Z,19.36
2023-01-02T18:07:09.306Z,19.36
2023-01-02T18:09:35.590Z,19.34
2023-01-02T18:12:01.791Z,19.34
2023-01-02T18:14:28.669Z,19.33
2023-01-02T18:16:55.061Z,19.32
2023-01-02T18:19:21.402Z,19.32
2023-01-02T18:21:47.751Z,19.30
2023-01-02T18:24:14.175Z,19.30
2023-01-02T18:26:40.521Z,19.27
2023-01-02T18:29:10.118Z,19.25
2023-01-02T18:31:36.629Z,19.25
2023-01-02T18:34:02.956Z,19.24
2023-01-02T18:36:29.266Z,19.23
2023-01-02T18:38:55.547Z,19.21
2023-01-02T18:41:22.662Z,19.21
2023-01-02T18:43:49.004Z,19.19
2023-01-02T18:46:15.619Z,19.17
2023-01-02T18:48:41.949Z,19.15
2023-01-02T18:51:08.735Z,19.15
2023-01-02T18:53:35.094Z,19.14
2023-01-02T18:56:01.389Z,19.13
2023-01-02T18:58:30.487Z,19.11
2023-01-02T19:00:56.844Z,19.09
2023-01-02T19:03:23.164Z,19.07
2023-01-02T19:05:49.432Z,19.07
2023-01-02T19:08:15.710Z,19.07
2023-01-02T19:10:42.641Z,19.08
2023-01-02T19:13:09.285Z,19.10
2023-01-02T19:15:35.572Z,19.12
2023-01-02T19:18:01.896Z,19.14
2023-01-02T19:20:28.168Z,19.16
2023-01-02T19:22:54.655Z,19.18
2023-01-02T19:25:20.887Z,19.21
2023-01-02T19:27:47.406Z,19.23
2023-01-02T19:30:20.524Z,19.24
2023-01-02T19:32:47.736Z,19.25
2023-01-02T19:35:14.477Z,19.26
2023-01-02T19:37:40.776Z,19.26
2023-01-02T19:40:07.087Z,19.27
2023-01-02T19:42:33.375Z,19.27
2023-01-02T19:44:59.643Z,19.26
2023-01-02T19:47:25.936Z,19.25
2023-01-02T19:49:52.248Z,19.25
2023-01-02T19:52:19.444Z,19.25
2023-01-02T19:54:45.729Z,19.24
2023-01-02T19:57:12.033Z,19.24
2023-01-02T19:59:43.558Z,19.23
2023-01-02T20:02:10.413Z,19.22
2023-01-02T20:04:38.988Z,19.20
2023-01-02T20:07:05.490Z,19.20
2023-01-02T20:09:32.048Z,19.18
2023-01-02T20:12:01.328Z,19.18
2023-01-02T20:14:32.144Z,19.21
2023-01-02T20:16:58.684Z,19.29
2023-01-02T20:19:25.299Z,19.41
2023-01-02T20:21:51.763Z,19.61
2023-01-02T20:24:18.006Z,19.78
2023-01-02T20:26:44.329Z,19.96
2023-01-02T20:29:11.497Z,20.14
2023-01-02T20:31:37.934Z,20.33
2023-01-02T20:34:04.178Z,20.52
2023-01-02T20:36:31.498Z,20.67
2023-01-02T20:38:57.743Z,20.82
2023-01-02T20:41:24.229Z,20.94
2023-01-02T20:43:50.501Z,21.08
2023-01-02T20:46:16.762Z,21.22
2023-01-02T20:48:43.949Z,21.36
2023-01-02T20:51:10.243Z,21.43
2023-01-02T20:53:37.533Z,21.51
2023-01-02T20:56:03.887Z,21.55
2023-01-02T20:58:30.197Z,21.56
2023-01-02T21:00:56.874Z,21.58
2023-01-02T21:03:23.315Z,21.58
2023-01-02T21:05:49.677Z,21.59
2023-01-02T21:08:15.933Z,21.58
2023-01-02T21:10:42.224Z,21.58
2023-01-02T21:13:09.105Z,21.57
2023-01-02T21:15:35.446Z,21.57
2023-01-02T21:18:01.994Z,21.57
2023-01-02T21:20:28.906Z,21.58
2023-01-02T21:22:55.239Z,21.56
2023-01-02T21:25:21.566Z,21.57
2023-01-02T21:27:47.850Z,21.56
2023-01-02T21:30:14.123Z,21.55
2023-01-02T21:32:40.364Z,21.55
2023-01-02T21:35:07.513Z,21.54
2023-01-02T21:37:33.991Z,21.52
2023-01-02T21:40:00.305Z,21.50
2023-01-02T21:42:26.608Z,21.49
2023-01-02T21:44:52.902Z,21.50
2023-01-02T21:47:19.277Z,21.50
2023-01-02T21:49:45.579Z,21.50
2023-01-02T21:52:11.829Z,21.50
2023-01-02T21:54:38.163Z,21.49
2023-01-02T21:57:04.422Z,21.49
2023-01-02T21:59:30.677Z,21.49
2023-01-02T22:01:57.384Z,21.49
2023-01-02T22:04:23.958Z,21.48
2023-01-02T22:07:30.094Z,21.49
2023-01-02T22:09:37.114Z,21.51
2023-01-02T22:12:04.849Z,21.51
2023-01-02T22:14:31.155Z,21.51
2023-01-02T22:16:57.463Z,21.53
2023-01-02T22:19:25.021Z,21.53
2023-01-02T22:21:51.292Z,21.53
2023-01-02T22:24:17.546Z,21.53
2023-01-02T22:26:43.846Z,21.53
2023-01-02T22:29:10.159Z,21.54
2023-01-02T22:31:36.510Z,21.53
2023-01-02T22:34:02.955Z,21.54
2023-01-02T22:36:29.455Z,21.54
2023-01-02T22:39:26.426Z,21.53
2023-01-02T22:41:43.058Z,21.53
2023-01-02T22:44:09.343Z,21.53
2023-01-02T22:46:35.746Z,21.53
2023-01-02T22:49:02.096Z,21.54
2023-01-02T22:51:57.597Z,21.54
2023-01-02T22:54:15.635Z,21.54
2023-01-02T22:56:42.027Z,21.53
2023-01-02T22:59:08.385Z,21.54
2023-01-02T23:01:38.294Z,21.55
2023-01-02T23:04:04.688Z,21.57
2023-01-02T23:06:30.995Z,21.59
2023-01-02T23:08:57.660Z,21.60
2023-01-02T23:11:24.710Z,21.57
2023-01-02T23:13:56.813Z,21.56
2023-01-02T23:16:23.459Z,21.52
2023-01-02T23:18:56.267Z,21.50
2023-01-02T23:21:23.322Z,21.42
2023-01-02T23:23:49.942Z,21.36
2023-01-02T23:26:16.243Z,21.29
2023-01-02T23:31:30.006Z,21.08
2023-01-02T23:33:56.421Z,21.00
2023-01-02T23:36:22.783Z,20.93
2023-01-02T23:38:49.437Z,20.85
2023-01-02T23:41:15.723Z,20.75
2023-01-02T23:43:42.003Z,20.69
2023-01-02T23:46:08.323Z,20.61
2023-01-02T23:48:37.671Z,20.53
2023-01-02T23:51:03.938Z,20.45
2023-01-02T23:53:30.236Z,20.35
2023-01-02T23:55:56.530Z,20.28
2023-01-02T23:58:23.508Z,20.20
